Time;durP1;ratioP1;P1;durP2;ratioP2;P2;SDS_P1;SDS_P2;PMS_P1;PMS_P2;Temp;Humidity;BMP_temperature;BMP_pressure;BME280_temperature;BME280_humidity;BME280_pressure;Samples;Min_cycle;Max_cycle;Signal;HPM_P1;HPM_P2
2023/08/19 00:01:15;;;;;;;10.07;3.50;;;20.70;83.30;;;;;;5114403;28;20664;-76
2023/08/19 00:03:42;;;;;;;6.03;3.37;;;20.60;83.20;;;;;;5114925;28;20462;-75
2023/08/19 00:06:12;;;;;;;6.60;3.40;;;20.60;83.40;;;;;;5114749;28;20472;-75
2023/08/19 00:08:40;;;;;;;6.07;3.40;;;20.50;84.10;;;;;;5114672;28;20440;-75
2023/08/19 00:11:07;;;;;;;5.67;3.37;;;20.40;84.00;;;;;;5114227;28;20557;-75
2023/08/19 00:13:34;;;;;;;6.07;3.97;;;20.40;84.40;;;;;;5114567;28;20434;-76
2023/08/19 00:16:01;;;;;;;8.63;3.67;;;20.40;84.10;;;;;;5114565;28;20491;-75
2023/08/19 00:18:28;;;;;;;7.30;3.30;;;20.50;83.70;;;;;;5114446;28;20435;-75
2023/08/19 00:20:55;;;;;;;11.73;3.83;;;20.50;83.70;;;;;;5114419;28;20561;-75
2023/08/19 00:23:25;;;;;;;8.33;3.70;;;20.40;83.90;;;;;;5114511;28;20427;-75
2023/08/19 00:25:52;;;;;;;8.30;3.80;;;20.40;83.90;;;;;;5114775;28;20430;-75
2023/08/19 00:28:19;;;;;;;7.20;4.30;;;20.30;84.20;;;;;;5114428;28;20530;-75
2023/08/19 00:30:46;;;;;;;9.10;4.03;;;20.40;84.00;;;;;;5114307;28;20464;-75
2023/08/19 00:33:13;;;;;;;5.87;4.20;;;20.30;84.30;;;;;;5114191;28;20478;-76
2023/08/19 00:35:42;;;;;;;7.03;3.87;;;20.20;85.20;;;;;;5114275;28;20514;-76
2023/08/19 00:38:09;;;;;;;5.90;3.67;;;20.20;86.60;;;;;;5114228;28;20854;-76
2023/08/19 00:40:38;;;;;;;8.90;4.10;;;20.10;86.50;;;;;;5113852;28;20485;-76
2023/08/19 00:43:05;;;;;;;6.73;3.50;;;20.20;86.20;;;;;;5114205;28;20526;-75
2023/08/19 00:45:32;;;;;;;8.67;3.70;;;20.20;84.90;;;;;;5114066;28;20433;-76
2023/08/19 00:47:59;;;;;;;4.80;3.80;;;20.20;85.00;;;;;;5114103;28;20469;-76
2023/08/19 00:50:26;;;;;;;6.13;3.77;;;20.20;85.60;;;;;;5114151;28;20537;-75
2023/08/19 00:52:54;;;;;;;5.57;3.90;;;20.20;85.60;;;;;;5113804;28;20473;-75
2023/08/19 00:55:21;;;;;;;7.77;3.57;;;20.20;85.60;;;;;;5114012;28;20766;-76
2023/08/19 00:57:50;;;;;;;11.20;3.63;;;20.20;85.50;;;;;;5114020;28;20874;-75
2023/08/19 01:00:17;;;;;;;7.70;3.97;;;20.20;85.80;;;;;;5113748;28;20555;-76
2023/08/19 01:02:44;;;;;;;6.80;3.47;;;20.10;86.20;;;;;;5114091;28;20863;-76
2023/08/19 01:05:12;;;;;;;5.33;3.67;;;20.00;86.40;;;;;;5113632;28;20916;-75
2023/08/19 01:07:45;;;;;;;4.00;3.47;;;20.00;86.80;;;;;;5113744;28;20944;-75
2023/08/19 01:10:25;;;;;;;7.00;4.37;;;19.90;87.20;;;;;;5113305;28;20561;-75
2023/08/19 01:13:11;;;;;;;5.87;3.40;;;19.90;87.50;;;;;;5113870;28;20823;-76
2023/08/19 01:15:48;;;;;;;6.37;3.57;;;20.00;86.70;;;;;;5113784;28;20510;-75
2023/08/19 01:18:17;;;;;;;5.30;3.30;;;19.90;86.00;;;;;;5113784;28;20832;-76
2023/08/19 01:20:45;;;;;;;5.90;3.27;;;19.80;86.20;;;;;;5113302;28;20522;-76
2023/08/19 01:23:17;;;;;;;9.00;3.43;;;19.80;86.20;;;;;;5113667;28;20464;-76
2023/08/19 01:25:45;;;;;;;5.37;3.83;;;19.80;86.00;;;;;;5113730;28;20843;-75
2023/08/19 01:28:14;;;;;;;3.73;3.10;;;19.70;86.20;;;;;;5113609;28;20431;-76
2023/08/19 01:30:41;;;;;;;5.37;3.93;;;19.60;86.80;;;;;;5113328;28;20431;-76
2023/08/19 01:33:08;;;;;;;5.80;3.43;;;19.50;87.10;;;;;;5113676;28;20437;-76
2023/08/19 01:35:42;;;;;;;6.90;3.77;;;19.50;87.20;;;;;;5113608;28;20472;-76
2023/08/19 01:38:13;;;;;;;5.07;3.43;;;19.40;88.00;;;;;;5113546;28;20491;-75
2023/08/19 01:40:41;;;;;;;7.17;3.07;;;19.30;87.80;;;;;;5113534;28;20549;-76
2023/08/19 01:43:11;;;;;;;6.00;3.80;;;19.30;87.50;;;;;;5113568;28;20472;-76
2023/08/19 01:45:39;;;;;;;4.60;3.60;;;19.30;87.60;;;;;;5113477;28;20468;-76
2023/08/19 01:48:06;;;;;;;5.37;3.63;;;19.30;88.30;;;;;;5113135;28;20471;-76
2023/08/19 01:50:33;;;;;;;7.37;3.13;;;19.30;88.20;;;;;;5113239;28;20998;-76
2023/08/19 01:53:00;;;;;;;5.50;4.77;;;19.40;87.90;;;;;;5113043;28;20525;-76
2023/08/19 01:55:27;;;;;;;5.03;4.23;;;19.40;87.60;;;;;;5113427;28;20462;-75
2023/08/19 01:57:54;;;;;;;9.63;4.10;;;19.40;88.00;;;;;;5113066;28;20521;-76
2023/08/19 02:00:22;;;;;;;6.53;3.80;;;19.40;88.20;;;;;;5113205;28;20564;-75
2023/08/19 02:02:49;;;;;;;4.47;3.33;;;19.30;88.30;;;;;;5112959;28;20512;-75
2023/08/19 02:05:16;;;;;;;7.00;3.60;;;19.30;88.00;;;;;;5113085;28;20966;-76
2023/08/19 02:07:43;;;;;;;6.77;3.60;;;19.20;88.30;;;;;;5113115;28;20950;-75
2023/08/19 02:10:12;;;;;;;5.50;3.33;;;19.10;89.60;;;;;;5113457;28;20464;-75
2023/08/19 02:12:38;;;;;;;7.33;3.30;;;19.10;90.00;;;;;;5114944;28;20829;-76
2023/08/19 02:15:06;;;;;;;5.67;3.70;;;19.10;90.50;;;;;;5116950;28;20465;-75
2023/08/19 02:17:35;;;;;;;4.20;3.23;;;19.10;90.10;;;;;;5116955;28;20524;-76
2023/08/19 02:20:03;;;;;;;4.93;3.43;;;19.10;90.30;;;;;;5116476;28;20465;-76
2023/08/19 02:22:29;;;;;;;9.03;3.90;;;19.10;90.50;;;;;;5116805;28;20850;-76
2023/08/19 02:24:56;;;;;;;5.00;3.40;;;19.10;90.50;;;;;;5116803;28;20473;-75
2023/08/19 02:27:25;;;;;;;5.00;3.13;;;19.10;90.30;;;;;;5116417;28;20469;-75
2023/08/19 02:29:52;;;;;;;7.70;3.27;;;19.10;90.20;;;;;;5116304;28;20512;-76
2023/08/19 02:32:19;;;;;;;9.03;5.20;;;19.10;90.20;;;;;;5116969;28;20434;-75
2023/08/19 02:34:47;;;;;;;8.53;4.17;;;19.10;89.60;;;;;;5116651;28;20842;-76
2023/08/19 02:37:14;;;;;;;6.30;4.83;;;19.10;89.50;;;;;;5116215;28;20521;-75
2023/08/19 02:39:41;;;;;;;7.80;4.33;;;19.00;89.50;;;;;;5116420;28;20430;-76
2023/08/19 02:42:08;;;;;;;6.57;3.70;;;19.00;89.70;;;;;;5116029;28;20507;-75
2023/08/19 02:44:36;;;;;;;5.10;3.67;;;18.90;89.50;;;;;;5116329;28;20832;-75
2023/08/19 02:47:03;;;;;;;7.90;2.83;;;19.00;88.70;;;;;;5116306;28;20468;-76
2023/08/19 02:49:30;;;;;;;6.27;3.77;;;18.90;88.50;;;;;;5116020;28;20478;-76
2023/08/19 02:51:58;;;;;;;7.37;3.37;;;18.90;89.60;;;;;;5116181;28;20858;-76
2023/08/19 02:54:25;;;;;;;4.23;3.27;;;18.80;89.00;;;;;;5116226;28;20443;-76
2023/08/19 02:56:52;;;;;;;6.50;3.40;;;18.80;88.90;;;;;;5116213;28;20824;-76
2023/08/19 02:59:19;;;;;;;5.60;3.30;;;18.70;89.40;;;;;;5116142;28;20484;-75
2023/08/19 03:01:46;;;;;;;4.93;3.00;;;18.70;89.70;;;;;;5115786;28;20505;-75
2023/08/19 03:04:13;;;;;;;5.37;2.93;;;18.70;90.00;;;;;;5115846;28;20475;-76
2023/08/19 03:06:41;;;;;;;7.90;3.20;;;18.70;89.90;;;;;;5116061;28;20490;-76
2023/08/19 03:09:09;;;;;;;5.83;4.20;;;18.70;89.50;;;;;;5115699;28;20438;-76
2023/08/19 03:11:37;;;;;;;5.30;3.63;;;18.70;88.30;;;;;;5115551;28;20462;-76
2023/08/19 03:14:04;;;;;;;8.30;3.40;;;18.70;87.90;;;;;;5115801;28;20464;-76
2023/08/19 03:16:31;;;;;;;4.53;3.77;;;18.70;87.60;;;;;;5115414;28;20479;-75
2023/08/19 03:18:58;;;;;;;6.70;3.93;;;18.60;88.30;;;;;;5115911;28;20490;-76
2023/08/19 03:21:25;;;;;;;4.90;3.27;;;18.60;89.00;;;;;;5115591;28;20511;-76
2023/08/19 03:23:52;;;;;;;6.67;3.53;;;18.60;88.60;;;;;;5114041;28;20471;-76
2023/08/19 03:26:20;;;;;;;6.00;3.90;;;18.60;88.40;;;;;;5115635;28;20465;-76
2023/08/19 03:28:47;;;;;;;5.97;3.83;;;18.50;88.60;;;;;;5115427;28;20519;-76
2023/08/19 03:31:14;;;;;;;7.27;4.20;;;18.40;89.50;;;;;;5115460;28;20477;-76
2023/08/19 03:33:42;;;;;;;9.50;4.00;;;18.30;90.10;;;;;;5115452;28;20524;-76
2023/08/19 03:36:09;;;;;;;6.00;3.60;;;18.30;90.80;;;;;;5115326;28;20469;-76
2023/08/19 03:38:36;;;;;;;6.00;3.77;;;18.30;90.50;;;;;;5115161;28;20879;-76
2023/08/19 03:41:03;;;;;;;4.40;3.40;;;18.20;90.80;;;;;;5115284;28;20558;-75
2023/08/19 03:43:31;;;;;;;4.73;3.30;;;18.30;91.00;;;;;;5115408;28;20876;-76
2023/08/19 03:45:58;;;;;;;10.40;3.53;;;18.30;90.80;;;;;;5114925;28;20984;-75
2023/08/19 03:48:25;;;;;;;9.63;4.27;;;18.20;90.50;;;;;;5115160;28;20472;-75
2023/08/19 03:50:52;;;;;;;6.67;4.33;;;18.10;89.90;;;;;;5115203;28;20471;-76
2023/08/19 03:53:19;;;;;;;5.53;3.13;;;18.20;89.60;;;;;;5114984;28;20475;-76
2023/08/19 03:55:49;;;;;;;4.90;4.07;;;18.10;89.90;;;;;;5115201;28;20476;-76
2023/08/19 03:58:16;;;;;;;7.70;3.90;;;18.10;90.00;;;;;;5115243;28;20476;-75
2023/08/19 04:00:45;;;;;;;5.13;4.20;;;18.00;90.00;;;;;;5114779;28;20474;-75
2023/08/19 04:03:12;;;;;;;6.07;3.40;;;17.90;90.50;;;;;;5114541;28;20959;-76
2023/08/19 04:05:39;;;;;;;4.27;3.20;;;17.90;90.50;;;;;;5114678;28;20490;-76
2023/08/19 04:08:06;;;;;;;4.83;3.20;;;18.00;90.50;;;;;;5114491;28;20481;-75
2023/08/19 04:10:33;;;;;;;5.53;4.10;;;18.00;90.60;;;;;;5114299;28;20512;-75
2023/08/19 04:13:00;;;;;;;5.50;3.80;;;18.00;90.40;;;;;;5114336;28;20489;-75
2023/08/19 04:15:31;;;;;;;6.23;3.20;;;18.00;90.30;;;;;;5114276;28;20476;-76
2023/08/19 04:17:59;;;;;;;5.40;3.27;;;17.90;90.40;;;;;;5114665;28;20421;-75
2023/08/19 04:20:27;;;;;;;5.50;3.93;;;17.80;90.80;;;;;;5114487;28;20487;-76
2023/08/19 04:22:53;;;;;;;4.93;3.67;;;17.80;91.50;;;;;;5114142;28;20550;-76
2023/08/19 04:25:22;;;;;;;5.77;3.50;;;17.80;91.60;;;;;;5114153;28;20535;-76
2023/08/19 04:27:49;;;;;;;5.97;3.60;;;17.80;91.60;;;;;;5113897;28;20469;-76
2023/08/19 04:30:16;;;;;;;7.00;4.17;;;17.90;91.40;;;;;;5113761;28;20464;-75
2023/08/19 04:32:43;;;;;;;5.17;3.70;;;18.00;91.20;;;;;;5114154;28;20443;-75
2023/08/19 04:35:13;;;;;;;11.13;3.80;;;18.00;90.70;;;;;;5113847;28;20446;-75
2023/08/19 04:37:40;;;;;;;5.43;3.50;;;18.00;90.70;;;;;;5114056;28;20522;-75
2023/08/19 04:40:09;;;;;;;6.07;3.53;;;18.00;91.00;;;;;;5113630;28;20477;-75
2023/08/19 04:42:36;;;;;;;5.83;3.50;;;18.00;90.80;;;;;;5114067;28;20476;-76
2023/08/19 04:45:05;;;;;;;4.93;3.50;;;18.00;90.60;;;;;;5113878;28;20469;-76
2023/08/19 04:47:33;;;;;;;5.17;3.03;;;18.00;90.60;;;;;;5113825;28;20437;-75
2023/08/19 04:50:00;;;;;;;5.40;3.60;;;17.90;90.80;;;;;;5113529;28;20519;-76
2023/08/19 04:52:28;;;;;;;8.73;4.07;;;18.00;91.00;;;;;;5113835;28;20437;-76
2023/08/19 04:54:55;;;;;;;7.60;3.90;;;17.90;91.20;;;;;;5113873;28;20525;-76
2023/08/19 04:57:22;;;;;;;7.77;3.70;;;18.00;91.60;;;;;;5113634;28;20954;-77
2023/08/19 04:59:49;;;;;;;6.23;3.40;;;18.00;91.70;;;;;;5113901;28;20475;-77
2023/08/19 05:02:16;;;;;;;7.33;4.67;;;18.10;91.80;;;;;;5113521;28;20562;-76
2023/08/19 05:04:43;;;;;;;5.50;3.83;;;18.10;91.80;;;;;;5114118;28;20470;-76
2023/08/19 05:07:10;;;;;;;6.70;3.20;;;18.10;91.80;;;;;;5113553;28;20464;-75
2023/08/19 05:09:38;;;;;;;5.83;3.60;;;18.20;92.00;;;;;;5113628;28;20456;-76
2023/08/19 05:12:06;;;;;;;6.37;3.30;;;18.30;92.00;;;;;;5113836;28;20476;-76
2023/08/19 05:14:33;;;;;;;8.27;3.60;;;18.40;91.80;;;;;;5113722;28;20519;-76
2023/08/19 05:17:00;;;;;;;8.77;4.20;;;18.50;91.40;;;;;;5113439;28;20516;-76
2023/08/19 05:19:28;;;;;;;8.20;5.93;;;18.60;91.20;;;;;;5113397;28;20522;-77
2023/08/19 05:21:55;;;;;;;7.43;4.50;;;18.60;91.20;;;;;;5113712;28;20503;-78
2023/08/19 05:24:21;;;;;;;8.70;4.13;;;18.60;91.30;;;;;;5113399;28;20473;-76
2023/08/19 05:26:50;;;;;;;5.80;3.40;;;18.70;91.50;;;;;;5113726;28;20517;-76
2023/08/19 05:29:18;;;;;;;6.30;4.27;;;18.70;91.40;;;;;;5113325;28;20515;-76
2023/08/19 05:31:45;;;;;;;11.97;5.10;;;18.70;91.50;;;;;;5113640;28;20884;-77
2023/08/19 05:34:11;;;;;;;11.17;5.13;;;18.80;91.60;;;;;;5113683;28;20508;-76
2023/08/19 05:36:38;;;;;;;8.73;4.63;;;18.90;91.80;;;;;;5113245;28;20519;-76
2023/08/19 05:39:06;;;;;;;8.93;4.63;;;19.00;91.80;;;;;;5113737;28;20441;-76
2023/08/19 05:41:34;;;;;;;7.03;4.43;;;19.00;91.50;;;;;;5113368;28;20471;-76
2023/08/19 05:44:02;;;;;;;9.23;5.10;;;19.10;91.10;;;;;;5113508;28;20530;-75
2023/08/19 05:46:29;;;;;;;8.03;5.63;;;19.10;91.00;;;;;;5113651;28;20432;-76
2023/08/19 05:48:56;;;;;;;6.47;4.13;;;19.10;91.40;;;;;;5117518;28;20432;-76
2023/08/19 05:51:23;;;;;;;6.70;4.10;;;19.20;91.70;;;;;;5117502;28;20801;-76
2023/08/19 05:53:50;;;;;;;7.93;4.50;;;19.30;91.80;;;;;;5117144;28;20433;-75
2023/08/19 05:56:17;;;;;;;7.73;4.67;;;19.30;91.40;;;;;;5116541;28;20459;-76
2023/08/19 05:58:46;;;;;;;7.20;4.17;;;19.40;91.60;;;;;;5117204;28;20843;-76
2023/08/19 06:01:14;;;;;;;7.93;3.50;;;19.50;91.70;;;;;;5116876;28;20434;-76
2023/08/19 06:03:41;;;;;;;5.63;3.60;;;19.60;91.90;;;;;;5117264;28;20478;-76
2023/08/19 06:06:09;;;;;;;8.80;4.93;;;19.70;92.30;;;;;;5117327;27;20433;-76
2023/08/19 06:08:35;;;;;;;5.40;3.80;;;19.80;92.50;;;;;;5117044;28;20430;-76
2023/08/19 06:11:05;;;;;;;5.37;3.80;;;19.90;92.50;;;;;;5117013;28;20498;-76
2023/08/19 06:13:32;;;;;;;7.27;4.20;;;20.00;92.60;;;;;;5116851;28;20439;-76
2023/08/19 06:15:59;;;;;;;5.70;4.40;;;20.20;92.60;;;;;;5117031;28;20851;-76
2023/08/19 06:18:28;;;;;;;7.47;5.17;;;20.30;92.70;;;;;;5116471;28;20513;-76
2023/08/19 06:20:56;;;;;;;10.30;4.80;;;20.40;92.60;;;;;;5116393;28;20445;-76
2023/08/19 06:23:23;;;;;;;7.13;4.70;;;20.50;92.60;;;;;;5116722;28;20478;-76
2023/08/19 06:25:53;;;;;;;9.67;3.70;;;20.60;92.10;;;;;;5116661;28;20434;-76
2023/08/19 06:28:21;;;;;;;7.60;4.90;;;20.80;91.80;;;;;;5116939;28;20520;-76
2023/08/19 06:30:49;;;;;;;8.70;3.80;;;20.90;91.60;;;;;;5116514;28;20433;-76
2023/08/19 06:33:28;;;;;;;8.73;4.50;;;21.00;91.50;;;;;;5113480;28;20503;-76
2023/08/19 06:35:58;;;;;;;8.03;4.90;;;21.10;91.80;;;;;;5116207;28;20415;-77
2023/08/19 06:38:28;;;;;;;10.10;4.20;;;21.20;92.00;;;;;;5116092;28;20427;-76
2023/08/19 06:40:59;;;;;;;7.17;4.87;;;21.30;92.10;;;;;;5116465;28;20458;-76
2023/08/19 06:43:27;;;;;;;5.57;4.07;;;21.40;92.10;;;;;;5116118;28;20510;-76
2023/08/19 06:45:55;;;;;;;7.53;4.30;;;21.50;92.10;;;;;;5116183;28;20461;-76
2023/08/19 06:48:24;;;;;;;6.80;3.70;;;21.70;92.00;;;;;;5115979;28;20532;-76
2023/08/19 06:50:53;;;;;;;5.57;3.63;;;21.80;91.90;;;;;;5115771;28;20523;-76
2023/08/19 06:53:21;;;;;;;6.00;4.20;;;21.90;91.60;;;;;;5116069;28;20909;-76
2023/08/19 06:55:55;;;;;;;6.10;3.77;;;22.00;91.60;;;;;;5115989;28;20458;-76
2023/08/19 06:58:25;;;;;;;7.40;4.63;;;22.10;91.70;;;;;;5115222;28;20964;-78
2023/08/19 07:01:02;;;;;;;8.00;4.77;;;22.30;91.60;;;;;;5101375;27;20435;-76
2023/08/19 07:03:32;;;;;;;6.17;3.60;;;22.30;91.30;;;;;;5114714;28;20446;-77
2023/08/19 07:06:03;;;;;;;4.33;3.40;;;22.50;91.40;;;;;;5123834;27;20431;-77
2023/08/19 07:08:31;;;;;;;12.50;4.43;;;22.60;91.40;;;;;;5115429;28;20454;-76
2023/08/19 07:11:00;;;;;;;4.90;3.63;;;22.70;91.20;;;;;;5115741;28;20461;-76
2023/08/19 07:13:28;;;;;;;6.80;3.57;;;22.80;90.90;;;;;;5115507;28;20468;-76
2023/08/19 07:16:01;;;;;;;6.90;3.60;;;22.90;90.70;;;;;;5115608;28;20514;-76
2023/08/19 07:18:30;;;;;;;5.10;3.40;;;23.00;90.50;;;;;;5115186;28;20427;-76
2023/08/19 07:21:00;;;;;;;10.33;3.90;;;23.10;90.50;;;;;;5114879;28;20478;-76
2023/08/19 07:23:29;;;;;;;6.80;3.50;;;23.30;90.50;;;;;;5115029;28;20474;-76
2023/08/19 07:25:58;;;;;;;6.97;4.27;;;23.40;90.30;;;;;;5115339;28;20488;-76
2023/08/19 07:28:26;;;;;;;10.37;4.53;;;23.60;90.00;;;;;;5114147;28;20485;-76
2023/08/19 07:30:58;;;;;;;7.73;3.33;;;23.70;89.50;;;;;;5114587;28;20481;-76
2023/08/19 07:33:27;;;;;;;12.33;3.27;;;23.80;89.10;;;;;;5114464;28;20431;-76
2023/08/19 07:35:53;;;;;;;14.00;3.73;;;24.00;88.80;;;;;;5114436;28;20430;-75
2023/08/19 07:38:21;;;;;;;6.80;4.03;;;24.20;88.50;;;;;;5115201;28;20442;-76
2023/08/19 07:40:49;;;;;;;4.73;3.23;;;24.30;87.40;;;;;;5115297;28;20435;-76
2023/08/19 07:43:16;;;;;;;6.20;4.50;;;24.50;87.30;;;;;;5119317;27;20480;-78
2023/08/19 07:45:43;;;;;;;8.10;3.60;;;24.60;86.40;;;;;;5109572;28;20447;-77
2023/08/19 07:48:10;;;;;;;9.87;3.90;;;24.80;86.00;;;;;;5113688;28;20439;-77
2023/08/19 07:50:38;;;;;;;11.70;3.73;;;25.00;86.50;;;;;;5114784;28;20525;-77
2023/08/19 07:53:06;;;;;;;5.80;3.70;;;25.20;86.10;;;;;;5113902;27;20435;-77
2023/08/19 07:55:33;;;;;;;8.07;4.30;;;25.30;84.30;;;;;;5114859;28;20533;-76
2023/08/19 07:58:01;;;;;;;7.10;3.80;;;25.50;83.60;;;;;;5114922;28;20838;-76
2023/08/19 08:00:29;;;;;;;6.07;3.80;;;25.70;83.00;;;;;;5114823;28;20461;-78
2023/08/19 08:02:57;;;;;;;9.80;4.07;;;25.90;81.80;;;;;;5114820;28;20466;-77
2023/08/19 08:05:26;;;;;;;5.03;3.00;;;26.10;76.50;;;;;;5114487;28;20473;-77
2023/08/19 08:07:53;;;;;;;6.20;3.33;;;26.30;75.00;;;;;;5114279;28;20466;-77
2023/08/19 08:10:20;;;;;;;5.73;3.30;;;26.40;70.90;;;;;;5113804;28;20520;-77
2023/08/19 08:12:49;;;;;;;10.97;3.87;;;26.60;68.60;;;;;;5114690;28;20473;-79
2023/08/19 08:15:18;;;;;;;8.63;3.63;;;26.80;67.90;;;;;;5114424;28;20435;-77
2023/08/19 08:17:45;;;;;;;7.33;4.37;;;27.00;67.00;;;;;;5114614;28;20837;-77
2023/08/19 08:20:12;;;;;;;7.80;3.40;;;27.20;65.30;;;;;;5114235;28;20469;-77
2023/08/19 08:22:39;;;;;;;11.03;3.73;;;27.30;64.80;;;;;;5114600;28;20812;-76
2023/08/19 08:25:09;;;;;;;8.40;4.10;;;27.50;61.00;;;;;;5114121;28;20901;-77
2023/08/19 08:27:36;;;;;;;8.17;3.47;;;27.60;59.70;;;;;;5114151;28;20430;-76
2023/08/19 08:30:05;;;;;;;7.17;3.33;;;27.80;60.70;;;;;;5114233;28;20469;-77
2023/08/19 08:32:33;;;;;;;5.23;2.87;;;28.00;59.80;;;;;;5114362;28;20509;-77
2023/08/19 08:35:02;;;;;;;5.60;3.50;;;28.20;59.40;;;;;;5114322;28;20426;-77
2023/08/19 08:37:31;;;;;;;6.33;3.77;;;28.40;58.90;;;;;;5113982;28;20521;-77
2023/08/19 08:39:58;;;;;;;9.23;3.87;;;28.50;56.50;;;;;;5114148;28;20845;-77
2023/08/19 08:42:27;;;;;;;4.57;3.40;;;28.70;57.20;;;;;;5113813;28;21010;-77
2023/08/19 08:44:54;;;;;;;6.80;3.30;;;28.90;56.60;;;;;;5113836;28;20426;-77
2023/08/19 08:47:22;;;;;;;8.10;3.67;;;29.20;56.70;;;;;;5113792;28;20419;-77
2023/08/19 08:49:58;;;;;;;7.93;3.60;;;29.40;56.30;;;;;;5113771;28;20431;-77
2023/08/19 08:52:25;;;;;;;6.83;3.93;;;29.70;55.00;;;;;;5114489;28;20431;-77
2023/08/19 08:54:53;;;;;;;5.27;3.30;;;29.90;55.70;;;;;;5113929;28;20488;-77
2023/08/19 08:57:23;;;;;;;5.03;3.20;;;30.10;56.30;;;;;;5113990;28;20867;-77
2023/08/19 08:59:50;;;;;;;6.67;3.33;;;30.30;52.80;;;;;;5114042;28;20446;-77
2023/08/19 09:02:19;;;;;;;5.73;3.40;;;30.50;52.60;;;;;;5114005;28;20498;-77
2023/08/19 09:04:48;;;;;;;7.90;3.93;;;30.60;49.60;;;;;;5113895;28;20841;-77
2023/08/19 09:07:22;;;;;;;8.13;3.67;;;30.70;50.80;;;;;;5113966;28;20462;-77
2023/08/19 09:09:52;;;;;;;5.70;3.37;;;30.90;50.70;;;;;;5113611;28;20519;-76
2023/08/19 09:12:21;;;;;;;7.23;3.57;;;31.10;50.60;;;;;;5113932;28;20797;-77
2023/08/19 09:14:52;;;;;;;8.50;3.70;;;31.20;47.70;;;;;;5113913;28;20427;-77
2023/08/19 09:17:19;;;;;;;5.97;3.50;;;31.10;45.70;;;;;;5113952;28;20476;-77
2023/08/19 09:19:46;;;;;;;6.50;3.67;;;31.20;47.30;;;;;;5113727;28;20434;-77
2023/08/19 09:22:22;;;;;;;5.13;3.67;;;31.30;48.20;;;;;;5114542;28;20459;-77
2023/08/19 09:24:50;;;;;;;7.07;4.03;;;31.50;47.10;;;;;;5117971;28;20426;-77
2023/08/19 09:27:27;;;;;;;7.47;4.10;;;31.70;45.50;;;;;;5117915;28;20932;-77
2023/08/19 09:29:54;;;;;;;9.67;3.83;;;31.70;46.40;;;;;;5117792;28;20501;-77
2023/08/19 09:32:29;;;;;;;6.90;3.67;;;31.90;46.60;;;;;;5117795;28;20492;-77
2023/08/19 09:35:03;;;;;;;10.83;3.63;;;32.10;45.90;;;;;;5117768;28;20418;-78
2023/08/19 09:37:32;;;;;;;11.53;4.07;;;32.30;46.10;;;;;;5117451;28;20939;-77
2023/08/19 09:40:00;;;;;;;6.10;3.60;;;32.50;46.60;;;;;;5117283;28;21001;-77
2023/08/19 09:42:28;;;;;;;7.57;3.93;;;32.60;44.40;;;;;;5117593;28;20518;-77
2023/08/19 09:44:55;;;;;;;5.90;3.40;;;32.80;44.60;;;;;;5117610;28;20431;-77
2023/08/19 09:47:24;;;;;;;10.60;3.47;;;32.90;42.40;;;;;;5117152;28;20457;-77
2023/08/19 09:49:53;;;;;;;7.17;3.10;;;33.00;43.50;;;;;;5117541;28;20466;-77
2023/08/19 09:52:20;;;;;;;7.00;4.23;;;33.10;44.10;;;;;;5117645;28;20936;-77
2023/08/19 09:54:53;;;;;;;6.70;3.30;;;33.30;43.70;;;;;;5117034;28;20477;-77
2023/08/19 09:57:32;;;;;;;8.07;3.07;;;33.50;42.70;;;;;;5117115;28;20473;-77
2023/08/19 09:59:59;;;;;;;5.43;3.17;;;33.60;43.70;;;;;;5117383;28;20508;-77
2023/08/19 10:02:28;;;;;;;6.47;3.37;;;33.80;43.80;;;;;;5116795;28;20934;-77
2023/08/19 10:04:56;;;;;;;4.60;3.17;;;34.00;43.80;;;;;;5117243;28;20783;-78
2023/08/19 10:07:30;;;;;;;9.03;3.43;;;34.20;43.10;;;;;;5116865;28;20434;-77
2023/08/19 10:10:03;;;;;;;7.13;3.50;;;34.40;41.90;;;;;;5116622;28;20458;-77
2023/08/19 10:12:40;;;;;;;9.03;3.63;;;34.50;41.20;;;;;;5117118;28;20832;-77
2023/08/19 10:15:09;;;;;;;5.23;3.00;;;34.70;42.60;;;;;;5117027;28;20415;-78
2023/08/19 10:17:39;;;;;;;4.87;3.03;;;35.00;42.40;;;;;;5116634;28;20466;-77
2023/08/19 10:20:17;;;;;;;6.50;3.23;;;35.10;42.10;;;;;;5116905;28;20437;-77
2023/08/19 10:22:49;;;;;;;7.60;3.10;;;35.30;41.60;;;;;;5116427;28;20432;-77
2023/08/19 10:25:20;;;;;;;6.43;3.10;;;35.50;40.30;;;;;;5116515;28;20466;-77
2023/08/19 10:27:47;;;;;;;6.50;3.20;;;35.60;38.80;;;;;;5116835;27;20843;-77
2023/08/19 10:30:31;;;;;;;13.03;3.63;;;35.70;38.00;;;;;;5116619;28;20435;-77
2023/08/19 10:33:04;;;;;;;6.27;3.20;;;35.70;36.40;;;;;;5116082;28;20525;-77
2023/08/19 10:35:59;;;;;;;9.20;3.23;;;35.80;37.80;;;;;;5116418;28;20932;-77
2023/08/19 10:38:26;;;;;;;5.30;3.40;;;35.80;36.20;;;;;;5116569;27;20513;-77
2023/08/19 10:41:04;;;;;;;6.43;3.47;;;35.70;35.10;;;;;;5116511;28;20467;-77
2023/08/19 10:43:52;;;;;;;6.63;3.40;;;35.70;35.80;;;;;;5116258;28;20992;-78
2023/08/19 10:46:28;;;;;;;9.07;3.53;;;35.70;36.80;;;;;;5116645;28;20774;-77
2023/08/19 10:48:55;;;;;;;10.30;3.10;;;35.70;36.40;;;;;;5116104;28;20426;-77
2023/08/19 10:51:54;;;;;;;8.73;3.40;;;35.70;36.40;;;;;;5116303;28;20426;-77
2023/08/19 10:54:28;;;;;;;6.27;3.27;;;35.90;34.70;;;;;;5116004;28;20421;-77
2023/08/19 10:57:14;;;;;;;10.50;3.60;;;35.90;34.60;;;;;;5115878;28;20909;-77
2023/08/19 10:59:42;;;;;;;6.50;3.00;;;35.90;31.70;;;;;;5115801;28;20955;-77
2023/08/19 11:02:10;;;;;;;8.60;3.40;;;35.90;31.30;;;;;;5115744;28;20963;-78
2023/08/19 11:04:41;;;;;;;11.83;3.43;;;35.80;30.30;;;;;;5115982;28;20881;-77
2023/08/19 11:07:09;;;;;;;10.57;3.43;;;35.80;34.20;;;;;;5115954;28;20465;-77
2023/08/19 11:09:42;;;;;;;11.67;3.47;;;35.90;37.20;;;;;;5115686;28;20890;-77
2023/08/19 11:12:16;;;;;;;6.00;4.00;;;36.00;36.40;;;;;;5115680;27;20411;-77
2023/08/19 11:14:47;;;;;;;5.73;3.37;;;36.10;35.90;;;;;;5115800;28;20430;-77
2023/08/19 11:17:14;;;;;;;5.53;2.97;;;36.20;37.00;;;;;;5115935;28;20867;-77
2023/08/19 11:19:46;;;;;;;6.10;2.90;;;36.30;36.60;;;;;;5115417;28;20462;-77
2023/08/19 11:22:15;;;;;;;7.70;3.40;;;36.30;34.50;;;;;;5115414;28;20850;-77
2023/08/19 11:24:42;;;;;;;7.00;3.40;;;36.40;34.60;;;;;;5115325;28;20992;-77
2023/08/19 11:27:14;;;;;;;5.53;3.03;;;36.40;33.20;;;;;;5115336;28;20479;-77
2023/08/19 11:29:47;;;;;;;6.03;3.40;;;36.30;32.70;;;;;;5115229;28;20498;-77
2023/08/19 11:32:19;;;;;;;7.90;3.67;;;36.30;33.60;;;;;;5115623;28;20423;-77
2023/08/19 11:34:46;;;;;;;6.33;3.30;;;36.30;34.20;;;;;;5115196;28;20913;-78
2023/08/19 11:37:16;;;;;;;6.83;3.40;;;36.40;32.40;;;;;;5115129;28;20446;-77
2023/08/19 11:39:46;;;;;;;8.40;3.50;;;36.30;31.60;;;;;;5115017;28;20483;-77
2023/08/19 11:42:13;;;;;;;9.70;3.77;;;36.30;32.20;;;;;;5114990;28;20456;-77
2023/08/19 11:44:43;;;;;;;7.23;3.37;;;36.30;32.10;;;;;;5113840;28;20558;-77
2023/08/19 11:47:11;;;;;;;5.93;2.97;;;36.20;29.70;;;;;;5114878;28;20462;-75
2023/08/19 11:49:38;;;;;;;7.37;3.40;;;36.10;30.70;;;;;;5115262;28;20462;-77
2023/08/19 11:52:06;;;;;;;7.20;3.30;;;36.10;32.50;;;;;;5114812;28;20466;-77
2023/08/19 11:54:34;;;;;;;7.73;3.13;;;36.10;33.20;;;;;;5114709;28;20471;-77
2023/08/19 11:57:02;;;;;;;9.33;3.80;;;36.20;31.80;;;;;;5114706;28;20921;-77
2023/08/19 11:59:31;;;;;;;8.73;2.80;;;36.10;30.90;;;;;;5114549;28;20437;-77
2023/08/19 12:01:58;;;;;;;8.90;3.00;;;36.10;30.60;;;;;;5114991;28;20437;-77
2023/08/19 12:04:26;;;;;;;7.57;2.60;;;36.00;31.40;;;;;;5114971;28;20513;-78
2023/08/19 12:06:53;;;;;;;5.70;2.80;;;36.00;31.00;;;;;;5115180;28;20796;-77
2023/08/19 12:09:31;;;;;;;6.83;3.17;;;36.00;30.50;;;;;;5114565;28;20545;-77
2023/08/19 12:12:08;;;;;;;9.53;3.47;;;35.90;30.20;;;;;;5114889;28;20457;-77
2023/08/19 12:14:35;;;;;;;7.47;2.83;;;35.90;31.10;;;;;;5114744;28;20427;-77
2023/08/19 12:17:07;;;;;;;8.80;3.20;;;35.90;31.70;;;;;;5114281;28;20500;-77
2023/08/19 12:19:35;;;;;;;13.23;3.30;;;36.00;31.60;;;;;;5114592;28;20510;-77
2023/08/19 12:22:03;;;;;;;7.10;2.40;;;36.00;31.90;;;;;;5114552;28;20434;-77
2023/08/19 12:24:35;;;;;;;12.20;2.97;;;36.00;31.00;;;;;;5114480;28;20473;-77
2023/08/19 12:27:04;;;;;;;11.93;3.70;;;36.10;31.70;;;;;;5114917;28;20425;-77
2023/08/19 12:29:32;;;;;;;5.70;3.00;;;36.10;33.10;;;;;;5114090;28;20470;-77
2023/08/19 12:31:59;;;;;;;8.70;3.93;;;36.10;32.60;;;;;;5114395;28;20523;-77
2023/08/19 12:34:27;;;;;;;9.03;2.97;;;36.10;32.90;;;;;;5114371;28;20451;-77
2023/08/19 12:36:54;;;;;;;7.57;3.37;;;36.20;33.00;;;;;;5114306;28;20442;-77
2023/08/19 12:39:22;;;;;;;6.63;3.30;;;36.20;32.00;;;;;;5113965;28;20438;-77
2023/08/19 12:41:51;;;;;;;7.13;3.40;;;36.10;29.70;;;;;;5114357;28;20430;-78
2023/08/19 12:44:19;;;;;;;8.10;3.00;;;36.00;29.50;;;;;;5114026;28;20513;-77
2023/08/19 12:46:49;;;;;;;13.10;3.03;;;35.90;29.40;;;;;;5114117;28;20569;-78
2023/08/19 12:49:16;;;;;;;5.60;3.20;;;35.70;29.90;;;;;;5114044;28;20462;-77
2023/08/19 12:51:43;;;;;;;7.60;2.90;;;35.60;30.60;;;;;;5114063;28;20851;-78
2023/08/19 12:54:10;;;;;;;9.97;3.00;;;35.60;29.80;;;;;;5113709;28;20929;-77